Atraxia — SE6246 — position and weather

sailwx.info

Track history (hours):
 
Tides and Currents Weather Stations Pressure Air Temp Water Temp Dewpoint Dewpoint Depression Visibility Wind Speed Wind Dir Waves Ship Positions

Atraxia

Last reported at 2018-Apr-20 11:44 UTC. Time now 2018-Jul-18 05:09 UTC.
Position N 32°51' E 034°58'.
Warning: this ship's position is months out of date.

Length 15 m.

Type: Pleasure craft. MMSI: 265719690.

Date/timePositionNaut miles runAvg speedWind from/ knotsBaromVisibWave heightAir tempDewpointWater temp
2018-Apr-20 11:44N 32°51' E 034°58'2 7.0
2018-Apr-20 11:26N 32°50' E 034°56'3 6.3
2018-Apr-20 11:00N 32°48' E 034°54'9 6.7
2018-Apr-20 09:38N 32°39' E 034°51'1 7.0
2018-Apr-20 09:30N 32°38' E 034°51'3 6.9
2018-Apr-20 09:00N 32°35' E 034°50'3 6.6
2018-Apr-20 08:30N 32°32' E 034°50'3 6.7
2018-Apr-20 08:00N 32°28' E 034°50'3 6.6
2018-Apr-20 07:30N 32°25' E 034°49'3 6.5
2018-Apr-20 06:59N 32°22' E 034°49'10 5.7
2018-Apr-20 05:14N 32°12' E 034°47'2 0.1
2018-Apr-19 12:02N 32°10' E 034°48'0 1.8
2018-Apr-19 11:55N 32°10' E 034°47'2 5.2
2018-Apr-19 11:30N 32°08' E 034°47'3 5.7
2018-Apr-19 11:00N 32°05' E 034°45'0 1.0
2018-Apr-19 10:30N 32°05' E 034°45'1 1.9
2018-Apr-19 09:59N 32°06' E 034°46'2 3.8
2018-Apr-19 09:30N 32°07' E 034°47'2 3.5
2018-Apr-19 09:00N 32°09' E 034°47'1 0.0
2018-Apr-17 16:35N 32°10' E 034°48'0 0.0
2018-Apr-17 16:29N 32°10' E 034°48'1 3.1
2018-Apr-17 16:00N 32°11' E 034°47'3 6.2
2018-Apr-17 15:29N 32°14' E 034°47'5 6.3
2018-Apr-17 14:44N 32°19' E 034°46'1 4.9
2018-Apr-17 14:28N 32°20' E 034°47'3 5.0
2018-Apr-17 13:56N 32°23' E 034°48'2 5.0
2018-Apr-17 13:28N 32°25' E 034°48'2 5.0
2018-Apr-17 13:00N 32°27' E 034°49'3 5.8
2018-Apr-17 12:30N 32°30' E 034°50'3 6.7
2018-Apr-17 11:58N 32°34' E 034°51'8 6.4
2018-Apr-17 10:46N 32°41' E 034°52'8 6.3
2018-Apr-17 09:30N 32°49' E 034°56'  
2018-Apr-10 12:43N 32°50' E 034°58'  
Track history (hours):
 
Tides and Currents Weather Stations Pressure Air Temp Water Temp Dewpoint Dewpoint Depression Visibility Wind Speed Wind Dir Waves Ship Positions

Atraxia

Last reported at 2018-Apr-20 11:44 UTC. Time now 2018-Jul-18 05:09 UTC.
Position N 32°51' E 034°58'.
Warning: this ship's position is months out of date.

Length 15 m.

Type: Pleasure craft. MMSI: 265719690.

Date/timePositionNaut miles runAvg speedWind from/ knotsBaromVisibWave heightAir tempDewpointWater temp
2018-Apr-20 11:44N 32°51' E 034°58'2 7.0
2018-Apr-20 11:26N 32°50' E 034°56'3 6.3
2018-Apr-20 11:00N 32°48' E 034°54'9 6.7
2018-Apr-20 09:38N 32°39' E 034°51'1 7.0
2018-Apr-20 09:30N 32°38' E 034°51'3 6.9
2018-Apr-20 09:00N 32°35' E 034°50'3 6.6
2018-Apr-20 08:30N 32°32' E 034°50'3 6.7
2018-Apr-20 08:00N 32°28' E 034°50'3 6.6
2018-Apr-20 07:30N 32°25' E 034°49'3 6.5
2018-Apr-20 06:59N 32°22' E 034°49'10 5.7
2018-Apr-20 05:14N 32°12' E 034°47'2 0.1
2018-Apr-19 12:02N 32°10' E 034°48'0 1.8
2018-Apr-19 11:55N 32°10' E 034°47'2 5.2
2018-Apr-19 11:30N 32°08' E 034°47'3 5.7
2018-Apr-19 11:00N 32°05' E 034°45'0 1.0
2018-Apr-19 10:30N 32°05' E 034°45'1 1.9
2018-Apr-19 09:59N 32°06' E 034°46'2 3.8
2018-Apr-19 09:30N 32°07' E 034°47'2 3.5
2018-Apr-19 09:00N 32°09' E 034°47'1 0.0
2018-Apr-17 16:35N 32°10' E 034°48'0 0.0
2018-Apr-17 16:29N 32°10' E 034°48'1 3.1
2018-Apr-17 16:00N 32°11' E 034°47'3 6.2
2018-Apr-17 15:29N 32°14' E 034°47'5 6.3
2018-Apr-17 14:44N 32°19' E 034°46'1 4.9
2018-Apr-17 14:28N 32°20' E 034°47'3 5.0
2018-Apr-17 13:56N 32°23' E 034°48'2 5.0
2018-Apr-17 13:28N 32°25' E 034°48'2 5.0
2018-Apr-17 13:00N 32°27' E 034°49'3 5.8
2018-Apr-17 12:30N 32°30' E 034°50'3 6.7
2018-Apr-17 11:58N 32°34' E 034°51'8 6.4
2018-Apr-17 10:46N 32°41' E 034°52'8 6.3
2018-Apr-17 09:30N 32°49' E 034°56'  
2018-Apr-10 12:43N 32°50' E 034°58'  

Dump ship's entire track history